createdAt,value
2019-06-10T00:02:27.856Z,3.20
2019-06-10T00:04:55.810Z,3.07
2019-06-10T00:07:24.045Z,3.47
2019-06-10T00:09:52.117Z,3.10
2019-06-10T00:12:20.993Z,3.00
2019-06-10T00:14:50.890Z,2.90
2019-06-10T00:17:18.577Z,2.70
2019-06-10T00:19:46.533Z,2.87
2019-06-10T00:22:14.183Z,3.00
2019-06-10T00:24:41.861Z,2.87
2019-06-10T00:27:11.713Z,3.10
2019-06-10T00:29:40.899Z,2.90
2019-06-10T00:32:12.610Z,2.80
2019-06-10T00:34:38.148Z,3.00
2019-06-10T00:37:08.885Z,2.73
2019-06-10T00:39:35.480Z,3.03
2019-06-10T00:42:06.330Z,3.40
2019-06-10T00:44:33.181Z,3.10
2019-06-10T00:47:04.826Z,3.30
2019-06-10T00:49:31.766Z,3.20
2019-06-10T00:52:01.619Z,3.47
2019-06-10T00:54:31.207Z,3.73
2019-06-10T00:57:01.197Z,3.40
2019-06-10T00:59:31.070Z,3.37
2019-06-10T01:01:58.188Z,3.87
2019-06-10T01:04:26.165Z,3.30
2019-06-10T01:06:54.202Z,3.10
2019-06-10T01:09:22.179Z,3.20
2019-06-10T01:11:51.950Z,2.77
2019-06-10T01:14:21.586Z,3.33
2019-06-10T01:16:50.633Z,3.47
2019-06-10T01:19:18.952Z,3.00
2019-06-10T01:21:46.920Z,3.10
2019-06-10T01:24:14.928Z,3.60
2019-06-10T01:26:42.941Z,3.03
2019-06-10T01:29:12.734Z,3.30
2019-06-10T01:31:42.015Z,3.40
2019-06-10T01:34:11.997Z,3.13
2019-06-10T01:36:40.587Z,3.20
2019-06-10T01:39:11.598Z,3.47
2019-06-10T01:41:40.969Z,3.70
2019-06-10T01:44:10.838Z,3.10
2019-06-10T01:46:40.920Z,3.40
2019-06-10T01:49:09.532Z,3.23
2019-06-10T01:51:38.386Z,3.37
2019-06-10T01:54:07.423Z,3.47
2019-06-10T01:56:35.504Z,3.40
2019-06-10T01:59:03.343Z,3.40
2019-06-10T02:01:55.273Z,3.00
2019-06-10T02:04:23.512Z,3.37
2019-06-10T02:06:52.192Z,3.50
2019-06-10T02:09:22.914Z,3.20
2019-06-10T02:11:51.362Z,3.50
2019-06-10T02:14:20.369Z,3.27
2019-06-10T02:16:50.678Z,3.30
2019-06-10T02:19:18.722Z,3.77
2019-06-10T02:21:46.704Z,3.70
2019-06-10T02:24:14.809Z,3.20
2019-06-10T02:26:44.450Z,3.73
2019-06-10T02:29:14.311Z,3.77
2019-06-10T02:31:43.169Z,3.73
2019-06-10T02:34:13.292Z,3.70
2019-06-10T02:36:44.614Z,3.80
2019-06-10T02:39:16.594Z,3.87
2019-06-10T02:41:44.588Z,4.20
2019-06-10T02:44:14.970Z,3.70
2019-06-10T02:46:43.835Z,3.70
2019-06-10T02:49:26.583Z,3.60
2019-06-10T02:51:43.294Z,3.93
2019-06-10T02:54:09.836Z,4.23
2019-06-10T02:56:37.813Z,3.87
2019-06-10T02:59:05.480Z,4.33
2019-06-10T03:01:37.828Z,4.27
2019-06-10T03:04:04.543Z,3.60
2019-06-10T03:06:39.379Z,4.03
2019-06-10T03:09:03.676Z,4.47
2019-06-10T03:11:36.611Z,4.37
2019-06-10T03:14:02.626Z,4.90
2019-06-10T03:16:39.257Z,4.20
2019-06-10T03:19:07.233Z,4.70
2019-06-10T03:21:35.608Z,4.53
2019-06-10T03:24:03.265Z,4.53
2019-06-10T03:26:32.283Z,4.77
2019-06-10T03:29:02.515Z,4.30
2019-06-10T03:31:40.112Z,4.33
2019-06-10T03:34:04.560Z,4.80
2019-06-10T03:36:32.149Z,4.63
2019-06-10T03:38:59.316Z,4.67
2019-06-10T03:41:28.008Z,4.40
2019-06-10T03:43:56.590Z,4.30
2019-06-10T03:46:26.652Z,4.50
2019-06-10T03:48:53.949Z,4.50
2019-06-10T03:51:23.944Z,4.40
2019-06-10T03:53:53.070Z,4.60
2019-06-10T03:56:23.231Z,4.37
2019-06-10T03:58:52.083Z,3.97
2019-06-10T04:01:19.849Z,4.17
2019-06-10T04:03:47.483Z,4.40
2019-06-10T04:06:15.444Z,4.50
2019-06-10T04:08:43.846Z,4.70
2019-06-10T04:11:12.425Z,5.27
2019-06-10T04:13:42.857Z,4.50
2019-06-10T04:16:12.784Z,5.03
2019-06-10T04:18:39.845Z,4.33
2019-06-10T04:21:07.769Z,4.37
2019-06-10T04:23:35.736Z,4.50
2019-06-10T04:26:03.648Z,4.77
2019-06-10T04:28:33.748Z,4.30
2019-06-10T04:31:02.532Z,4.53
2019-06-10T04:33:32.976Z,4.70
2019-06-10T04:36:02.593Z,5.03
2019-06-10T04:38:29.568Z,5.00
2019-06-10T04:40:57.221Z,5.10
2019-06-10T04:43:26.079Z,5.40
2019-06-10T04:45:54.566Z,4.90
2019-06-10T04:48:23.557Z,4.80
2019-06-10T04:50:53.361Z,4.60
2019-06-10T04:53:23.704Z,4.50
2019-06-10T04:55:52.353Z,5.03
2019-06-10T04:58:23.371Z,4.93
2019-06-10T05:00:52.328Z,4.70
2019-06-10T05:03:23.139Z,4.70
2019-06-10T05:05:52.618Z,5.00
2019-06-10T05:08:21.574Z,4.73
2019-06-10T05:10:50.141Z,4.40
2019-06-10T05:13:19.091Z,4.37
2019-06-10T05:15:48.664Z,4.90
2019-06-10T05:18:16.554Z,4.47
2019-06-10T05:20:54.923Z,4.40
2019-06-10T05:23:15.057Z,4.53
2019-06-10T05:25:43.026Z,4.13
2019-06-10T05:28:12.308Z,4.50
2019-06-10T05:30:42.616Z,4.30
2019-06-10T05:33:10.233Z,4.50
2019-06-10T05:35:38.588Z,4.23
2019-06-10T05:38:06.244Z,5.00
2019-06-10T05:40:34.353Z,4.13
2019-06-10T05:43:02.588Z,4.10
2019-06-10T05:45:32.108Z,4.37
2019-06-10T05:48:02.207Z,4.50
2019-06-10T05:50:31.133Z,4.67
2019-06-10T05:52:59.842Z,4.63
2019-06-10T05:55:29.022Z,4.80
2019-06-10T05:57:57.142Z,4.27
2019-06-10T06:00:26.039Z,4.63
2019-06-10T06:02:54.547Z,4.57
2019-06-10T06:05:23.610Z,4.63
2019-06-10T06:08:02.310Z,4.57
2019-06-10T06:10:22.268Z,4.77
2019-06-10T06:12:52.544Z,4.20
2019-06-10T06:15:21.988Z,4.43
2019-06-10T06:18:04.017Z,5.00
2019-06-10T06:20:19.748Z,4.77
2019-06-10T06:22:47.769Z,4.50
2019-06-10T06:25:15.874Z,4.33
2019-06-10T06:27:43.514Z,4.57
2019-06-10T06:30:18.237Z,4.77
2019-06-10T06:32:43.541Z,4.23
2019-06-10T06:35:12.611Z,4.50
2019-06-10T06:37:42.807Z,4.47
2019-06-10T06:40:13.068Z,4.20
2019-06-10T06:42:43.073Z,4.27
2019-06-10T06:45:12.057Z,4.00
2019-06-10T06:47:39.202Z,4.53
2019-06-10T06:50:06.872Z,4.53
2019-06-10T06:53:04.213Z,4.40
2019-06-10T06:55:05.262Z,4.60
2019-06-10T06:57:34.214Z,4.50
2019-06-10T07:00:29.851Z,4.40
2019-06-10T07:02:34.216Z,4.63
2019-06-10T07:05:03.196Z,4.30
2019-06-10T07:07:33.109Z,4.60
2019-06-10T07:10:03.424Z,4.50
2019-06-10T07:12:33.728Z,4.80
2019-06-10T07:15:04.324Z,4.50
2019-06-10T07:17:34.533Z,4.97
2019-06-10T07:20:03.279Z,4.90
2019-06-10T07:22:33.579Z,4.80
2019-06-10T07:25:06.213Z,4.40
2019-06-10T07:27:34.151Z,4.33
2019-06-10T07:30:04.743Z,4.60
2019-06-10T07:32:32.920Z,4.13
2019-06-10T07:35:02.572Z,4.23
2019-06-10T07:37:32.387Z,4.10
2019-06-10T07:39:59.980Z,4.10
2019-06-10T07:42:27.960Z,4.50
2019-06-10T07:44:56.174Z,4.20
2019-06-10T07:47:24.645Z,3.70
2019-06-10T07:49:52.941Z,4.20
2019-06-10T07:52:23.294Z,3.67
2019-06-10T07:54:50.228Z,3.43
2019-06-10T07:57:18.148Z,3.90
2019-06-10T07:59:46.409Z,3.73
2019-06-10T08:02:14.888Z,3.67
2019-06-10T08:04:45.559Z,3.60
2019-06-10T08:07:12.562Z,3.80
2019-06-10T08:09:43.535Z,3.70
2019-06-10T08:12:12.584Z,4.07
2019-06-10T08:14:42.249Z,4.10
2019-06-10T08:17:09.362Z,3.60
2019-06-10T08:19:40.400Z,3.70
2019-06-10T08:22:07.161Z,3.67
2019-06-10T08:24:35.296Z,3.60
2019-06-10T08:27:03.549Z,3.70
2019-06-10T08:29:33.006Z,3.50
2019-06-10T08:32:03.279Z,3.70
2019-06-10T08:34:32.932Z,3.70
2019-06-10T08:37:04.345Z,3.83
2019-06-10T08:39:33.313Z,4.00
2019-06-10T08:42:02.976Z,4.00
2019-06-10T08:44:32.602Z,3.93
2019-06-10T08:46:59.530Z,3.70
2019-06-10T08:49:27.185Z,3.60
2019-06-10T08:51:55.144Z,3.70
2019-06-10T08:54:23.565Z,4.57
2019-06-10T08:56:54.027Z,4.00
2019-06-10T08:59:23.073Z,4.17
2019-06-10T09:01:56.553Z,3.87
2019-06-10T09:04:22.802Z,4.00
2019-06-10T09:06:53.532Z,4.00
2019-06-10T09:09:22.464Z,3.93
2019-06-10T09:11:51.994Z,4.33
2019-06-10T09:14:19.981Z,4.30
2019-06-10T09:16:49.366Z,3.97
2019-06-10T09:19:17.715Z,4.47
2019-06-10T09:21:51.096Z,3.70
2019-06-10T09:24:15.798Z,4.40
2019-06-10T09:26:47.946Z,4.13
2019-06-10T09:29:13.736Z,3.90
2019-06-10T09:31:45.579Z,4.20
2019-06-10T09:34:12.754Z,3.53
2019-06-10T09:36:42.233Z,4.40
2019-06-10T09:39:12.415Z,4.10
2019-06-10T09:41:45.225Z,4.27
2019-06-10T09:44:12.638Z,4.33
2019-06-10T09:46:43.995Z,3.70
2019-06-10T09:49:12.609Z,4.20
2019-06-10T09:51:44.464Z,3.60
2019-06-10T09:54:09.533Z,3.90
2019-06-10T09:56:37.840Z,3.77
2019-06-10T09:59:05.981Z,3.40
2019-06-10T10:01:34.478Z,3.80
2019-06-10T10:04:02.463Z,3.60
2019-06-10T10:06:32.552Z,3.87
2019-06-10T10:08:59.934Z,3.50
2019-06-10T10:11:28.704Z,3.57
2019-06-10T10:13:56.857Z,3.60
2019-06-10T10:16:24.777Z,3.20
2019-06-10T10:19:00.129Z,3.53
2019-06-10T10:21:22.404Z,3.40
2019-06-10T10:24:05.850Z,3.23
2019-06-10T10:26:20.629Z,3.40
2019-06-10T10:28:51.790Z,3.63
2019-06-10T10:31:18.461Z,3.60
2019-06-10T10:33:46.855Z,3.00
2019-06-10T10:36:14.870Z,3.57
2019-06-10T10:38:44.622Z,3.47
2019-06-10T10:41:13.579Z,3.20
2019-06-10T10:43:44.822Z,3.50
2019-06-10T10:46:13.924Z,3.23
2019-06-10T10:48:42.825Z,3.10
2019-06-10T10:51:13.174Z,3.37
2019-06-10T10:53:40.428Z,3.53
2019-06-10T10:56:09.526Z,3.20
2019-06-10T10:58:37.460Z,3.67
2019-06-10T11:01:05.686Z,3.07
2019-06-10T11:03:34.012Z,3.23
2019-06-10T11:06:01.973Z,3.53
2019-06-10T11:08:33.290Z,4.03
2019-06-10T11:11:03.572Z,3.73
2019-06-10T11:13:33.371Z,3.57
2019-06-10T11:16:03.523Z,3.80
2019-06-10T11:18:34.009Z,3.77
2019-06-10T11:21:04.960Z,3.73
2019-06-10T11:23:33.660Z,3.50
2019-06-10T11:26:00.574Z,3.80
2019-06-10T11:28:28.889Z,3.40
2019-06-10T11:30:58.623Z,3.70
2019-06-10T11:33:26.465Z,3.40
2019-06-10T11:35:56.971Z,3.40
2019-06-10T11:38:24.266Z,3.20
2019-06-10T11:40:54.975Z,3.30
2019-06-10T11:43:22.740Z,3.33
2019-06-10T11:45:57.618Z,3.60
2019-06-10T11:48:23.635Z,3.40
2019-06-10T11:50:54.364Z,4.00
2019-06-10T11:53:19.942Z,3.67
2019-06-10T11:55:47.934Z,3.77
2019-06-10T11:58:15.868Z,3.47
2019-06-10T12:00:44.118Z,3.77
2019-06-10T12:03:13.139Z,3.30
2019-06-10T12:05:40.966Z,4.00
2019-06-10T12:08:09.596Z,3.57
2019-06-10T12:10:37.239Z,3.37
2019-06-10T12:13:07.256Z,3.47
2019-06-10T12:16:13.947Z,3.47
2019-06-10T12:18:08.550Z,3.07
2019-06-10T12:20:35.094Z,2.80
2019-06-10T12:23:04.614Z,2.80
2019-06-10T12:25:38.862Z,3.10
2019-06-10T12:28:07.015Z,3.00
2019-06-10T12:30:34.418Z,3.10
2019-06-10T12:33:05.373Z,3.00
2019-06-10T12:35:33.290Z,3.10
2019-06-10T12:38:05.691Z,3.10
2019-06-10T12:40:31.233Z,2.90
2019-06-10T12:43:00.736Z,3.07
2019-06-10T12:45:28.861Z,3.20
2019-06-10T12:47:58.786Z,2.97
2019-06-10T12:50:26.913Z,3.17
2019-06-10T12:52:54.992Z,3.30
2019-06-10T12:55:38.447Z,3.03
2019-06-10T12:57:56.137Z,2.87
2019-06-10T13:00:26.529Z,2.73
2019-06-10T13:02:55.288Z,2.80
2019-06-10T13:05:23.303Z,2.87
2019-06-10T13:07:51.876Z,2.83
2019-06-10T13:10:27.924Z,3.50
2019-06-10T13:12:57.910Z,3.17
2019-06-10T13:15:25.635Z,3.20
2019-06-10T13:17:53.814Z,3.03
2019-06-10T13:20:22.919Z,3.10
2019-06-10T13:22:51.086Z,2.87
2019-06-10T13:25:19.065Z,2.87
2019-06-10T13:27:47.032Z,3.10
2019-06-10T13:30:14.701Z,2.80
2019-06-10T13:32:43.439Z,2.80
2019-06-10T13:35:12.480Z,3.23
2019-06-10T13:37:42.707Z,2.83
2019-06-10T13:40:12.884Z,2.90
2019-06-10T13:42:42.371Z,3.23
2019-06-10T13:45:10.870Z,3.10
2019-06-10T13:47:38.865Z,2.90
2019-06-10T13:50:09.486Z,3.40
2019-06-10T13:52:38.317Z,2.90
2019-06-10T13:55:07.887Z,3.10
2019-06-10T13:57:35.986Z,2.90
2019-06-10T14:00:07.849Z,2.97
2019-06-10T14:02:34.337Z,3.33
2019-06-10T14:05:03.547Z,2.53
2019-06-10T14:07:32.453Z,2.90
2019-06-10T14:10:05.400Z,2.87
2019-06-10T14:12:32.357Z,3.00
2019-06-10T14:15:02.561Z,2.60
2019-06-10T14:17:29.502Z,2.40
2019-06-10T14:19:57.150Z,2.47
2019-06-10T14:22:25.183Z,3.00
2019-06-10T14:24:53.970Z,2.70
2019-06-10T14:27:24.512Z,2.67
2019-06-10T14:29:52.933Z,2.93
2019-06-10T14:32:22.360Z,3.33
2019-06-10T14:34:52.632Z,2.57
2019-06-10T14:37:34.964Z,2.57
2019-06-10T14:39:52.739Z,2.70
2019-06-10T14:42:20.168Z,2.77
2019-06-10T14:44:47.830Z,2.80
2019-06-10T14:47:16.874Z,3.07
2019-06-10T14:49:44.597Z,2.40
2019-06-10T14:52:13.867Z,2.60
2019-06-10T14:54:42.820Z,2.70
2019-06-10T14:57:13.287Z,2.60
2019-06-10T14:59:42.547Z,2.60
2019-06-10T15:02:12.866Z,2.30
2019-06-10T15:04:42.537Z,2.67
2019-06-10T15:07:11.344Z,2.60
2019-06-10T15:09:39.486Z,2.60
2019-06-10T15:12:07.583Z,2.60
2019-06-10T15:14:35.268Z,2.77
2019-06-10T15:17:03.608Z,2.87
2019-06-10T15:19:33.284Z,2.40
2019-06-10T15:22:03.017Z,2.90
2019-06-10T15:24:33.259Z,3.20
2019-06-10T15:27:11.887Z,2.67
2019-06-10T15:29:32.665Z,2.80
2019-06-10T15:32:10.458Z,3.17
2019-06-10T15:34:29.080Z,2.70
2019-06-10T15:36:57.080Z,3.10
2019-06-10T15:39:25.422Z,2.83
2019-06-10T15:41:53.376Z,2.83
2019-06-10T15:44:43.923Z,2.70
2019-06-10T15:46:52.458Z,2.83
2019-06-10T15:49:25.381Z,2.90
2019-06-10T15:51:52.596Z,2.60
2019-06-10T15:54:21.517Z,2.60
2019-06-10T15:56:55.801Z,3.07
2019-06-10T15:59:19.834Z,3.00
2019-06-10T16:01:48.540Z,2.73
2019-06-10T16:04:17.672Z,2.80
2019-06-10T16:06:46.544Z,2.97
2019-06-10T16:09:15.717Z,2.87
2019-06-10T16:11:44.176Z,2.87
2019-06-10T16:14:12.651Z,2.70
2019-06-10T16:16:43.046Z,2.70
2019-06-10T16:19:10.021Z,3.10
2019-06-10T16:21:38.083Z,2.70
2019-06-10T16:24:05.784Z,2.60
2019-06-10T16:26:35.541Z,2.90
2019-06-10T16:29:03.300Z,2.97
2019-06-10T16:31:31.837Z,2.80
2019-06-10T16:34:00.019Z,2.70
2019-06-10T16:36:28.361Z,3.03
2019-06-10T16:38:56.341Z,3.00
2019-06-10T16:41:26.474Z,2.50
2019-06-10T16:43:53.894Z,2.67
2019-06-10T16:46:22.446Z,3.30
2019-06-10T16:48:52.622Z,2.80
2019-06-10T16:51:21.352Z,3.00
2019-06-10T16:53:49.452Z,3.03
2019-06-10T16:56:17.721Z,3.10
2019-06-10T16:58:45.831Z,3.00
2019-06-10T17:01:14.054Z,2.70
2019-06-10T17:03:42.621Z,3.20
2019-06-10T17:06:12.938Z,3.03
2019-06-10T17:08:42.627Z,3.43
2019-06-10T17:11:12.392Z,5.60
2019-06-10T17:13:42.237Z,3.30
2019-06-10T17:16:12.711Z,3.30
2019-06-10T17:18:40.691Z,3.40
2019-06-10T17:21:08.745Z,3.33
2019-06-10T17:23:37.034Z,3.27
2019-06-10T17:26:04.665Z,2.73
2019-06-10T17:28:36.634Z,3.03
2019-06-10T17:31:03.830Z,2.80
2019-06-10T17:33:35.504Z,3.20
2019-06-10T17:36:03.338Z,3.13
2019-06-10T17:38:32.329Z,2.73
2019-06-10T17:41:02.848Z,3.20
2019-06-10T17:43:32.689Z,3.30
2019-06-10T17:46:00.343Z,3.47
2019-06-10T17:48:29.242Z,3.57
2019-06-10T17:50:57.344Z,3.30
2019-06-10T17:53:26.118Z,3.33
2019-06-10T17:55:54.725Z,3.57
2019-06-10T17:58:33.328Z,3.50
2019-06-10T18:00:53.034Z,3.77
2019-06-10T18:03:23.248Z,3.70
2019-06-10T18:05:53.107Z,3.90
2019-06-10T18:08:22.368Z,4.07
2019-06-10T18:10:49.669Z,3.60
2019-06-10T18:13:17.612Z,3.97
2019-06-10T18:15:45.280Z,3.90
2019-06-10T18:18:13.188Z,3.83
2019-06-10T18:20:43.236Z,3.80
2019-06-10T18:23:13.286Z,3.73
2019-06-10T18:25:43.089Z,3.80
2019-06-10T18:28:12.087Z,4.33
2019-06-10T18:30:39.963Z,3.53
2019-06-10T18:33:07.644Z,3.67
2019-06-10T18:35:37.502Z,3.73
2019-06-10T18:38:05.358Z,3.87
2019-06-10T18:40:33.564Z,3.60
2019-06-10T18:43:02.902Z,3.90
2019-06-10T18:45:36.019Z,3.73
2019-06-10T18:48:00.841Z,3.90
2019-06-10T18:50:28.485Z,4.07
2019-06-10T18:52:58.731Z,3.93
2019-06-10T18:55:26.353Z,4.37
2019-06-10T18:57:54.559Z,3.80
2019-06-10T19:00:23.517Z,3.27
2019-06-10T19:03:08.750Z,3.27
2019-06-10T19:05:22.419Z,3.10
2019-06-10T19:07:52.764Z,3.20
2019-06-10T19:10:22.921Z,3.07
2019-06-10T19:12:50.229Z,3.07
2019-06-10T19:15:19.084Z,3.50
2019-06-10T19:17:47.633Z,2.90
2019-06-10T19:20:15.721Z,3.60
2019-06-10T19:22:43.727Z,3.10
2019-06-10T19:25:12.776Z,3.17
2019-06-10T19:27:43.993Z,3.10
2019-06-10T19:30:10.671Z,3.30
2019-06-10T19:32:39.969Z,3.20
2019-06-10T19:35:08.102Z,2.90
2019-06-10T19:37:37.481Z,3.10
2019-06-10T19:40:05.781Z,2.67
2019-06-10T19:42:35.391Z,3.10
2019-06-10T19:45:06.276Z,2.73
2019-06-10T19:47:34.189Z,2.80
2019-06-10T19:50:02.976Z,2.97
2019-06-10T19:52:32.497Z,3.13
2019-06-10T19:55:02.667Z,3.13
2019-06-10T19:57:32.803Z,3.67
2019-06-10T20:00:10.654Z,3.63
2019-06-10T20:02:29.592Z,3.27
2019-06-10T20:04:57.905Z,2.70
2019-06-10T20:07:25.564Z,3.37
2019-06-10T20:09:53.564Z,3.00
2019-06-10T20:12:22.928Z,3.20
2019-06-10T20:14:52.728Z,2.90
2019-06-10T20:17:22.755Z,2.90
2019-06-10T20:19:50.893Z,2.63
2019-06-10T20:22:18.551Z,2.50
2019-06-10T20:24:46.980Z,2.50
2019-06-10T20:27:14.742Z,2.70
2019-06-10T20:29:44.523Z,2.30
2019-06-10T20:32:12.804Z,2.73
2019-06-10T20:34:41.363Z,2.77
2019-06-10T20:37:09.710Z,2.80
2019-06-10T20:39:37.945Z,2.60
2019-06-10T20:42:05.872Z,2.53
2019-06-10T20:44:33.836Z,2.67
2019-06-10T20:47:01.785Z,2.43
2019-06-10T20:49:29.439Z,2.87
2019-06-10T20:52:09.944Z,2.30
2019-06-10T20:54:27.882Z,2.43
2019-06-10T20:56:55.873Z,2.47
2019-06-10T20:59:26.110Z,2.57
2019-06-10T21:01:54.016Z,2.57
2019-06-10T21:04:22.061Z,2.40
2019-06-10T21:06:53.003Z,2.80
2019-06-10T21:09:22.522Z,3.00
2019-06-10T21:11:51.035Z,2.20
2019-06-10T21:14:19.499Z,2.50
2019-06-10T21:16:48.364Z,2.33
2019-06-10T21:19:16.396Z,2.70
2019-06-10T21:21:45.690Z,2.80
2019-06-10T21:24:13.845Z,2.93
2019-06-10T21:26:43.867Z,2.90
2019-06-10T21:29:12.854Z,2.43
2019-06-10T21:31:41.771Z,2.83
2019-06-10T21:34:12.590Z,2.57
2019-06-10T21:36:41.217Z,2.90
2019-06-10T21:39:09.206Z,2.80
2019-06-10T21:41:37.236Z,2.60
2019-06-10T21:44:05.657Z,2.70
2019-06-10T21:46:33.914Z,2.80
2019-06-10T21:49:01.830Z,3.40
2019-06-10T21:51:32.322Z,2.80
2019-06-10T21:53:59.926Z,2.70
2019-06-10T21:56:27.577Z,2.73
2019-06-10T21:58:55.830Z,2.73
2019-06-10T22:01:23.832Z,2.40
2019-06-10T22:03:58.759Z,2.90
2019-06-10T22:06:22.753Z,2.97
2019-06-10T22:08:54.458Z,3.13
2019-06-10T22:11:23.133Z,3.07
2019-06-10T22:13:52.847Z,2.80
2019-06-10T22:16:22.597Z,2.83
2019-06-10T22:18:50.757Z,2.80
2019-06-10T22:21:18.848Z,2.80
2019-06-10T22:23:46.765Z,2.90
2019-06-10T22:26:14.441Z,2.80
2019-06-10T22:28:43.360Z,3.00
2019-06-10T22:31:19.095Z,2.90
2019-06-10T22:33:42.998Z,2.70
2019-06-10T22:36:12.909Z,3.17
2019-06-10T22:38:40.536Z,3.00
2019-06-10T22:41:08.561Z,3.37
2019-06-10T22:43:36.918Z,3.17
2019-06-10T22:46:04.980Z,2.73
2019-06-10T22:48:33.395Z,3.20
2019-06-10T22:51:01.406Z,2.90
2019-06-10T22:53:29.379Z,3.03
2019-06-10T22:55:58.101Z,3.20
2019-06-10T22:58:27.267Z,3.23
2019-06-10T23:00:56.525Z,2.70
2019-06-10T23:03:25.005Z,3.20
2019-06-10T23:05:54.462Z,3.10
2019-06-10T23:08:23.035Z,3.00
2019-06-10T23:10:53.268Z,3.20
2019-06-10T23:13:20.193Z,2.83
2019-06-10T23:15:48.830Z,3.00
2019-06-10T23:18:16.858Z,3.17
2019-06-10T23:20:44.911Z,2.87
2019-06-10T23:23:12.944Z,3.10
2019-06-10T23:25:42.721Z,2.80
2019-06-10T23:28:12.744Z,2.70
2019-06-10T23:30:42.769Z,2.77
2019-06-10T23:33:12.423Z,2.60
2019-06-10T23:35:42.681Z,2.80
2019-06-10T23:38:12.894Z,2.53
2019-06-10T23:40:39.773Z,2.33
2019-06-10T23:43:07.772Z,2.17
2019-06-10T23:45:35.712Z,2.20
2019-06-10T23:48:05.180Z,2.40
2019-06-10T23:50:33.269Z,2.10
2019-06-10T23:53:06.662Z,2.20
2019-06-10T23:55:32.027Z,2.73
2019-06-10T23:58:00.424Z,2.60
